sensor_id;sensor_type;location;lat;lon;timestamp;pressure;altitude;pressure_sealevel;temperature;humidity
54978;BME280;40873;47.522;19.106;2024-01-07T00:00:21;98947.13;;;6.80;100.00
54978;BME280;40873;47.522;19.106;2024-01-07T00:03:08;98944.41;;;6.81;100.00
54978;BME280;40873;47.522;19.106;2024-01-07T00:05:36;98949.03;;;6.78;100.00
54978;BME280;40873;47.522;19.106;2024-01-07T00:08:04;98946.50;;;6.76;100.00
54978;BME280;40873;47.522;19.106;2024-01-07T00:10:31;98951.75;;;6.76;100.00
54978;BME280;40873;47.522;19.106;2024-01-07T00:12:58;98941.03;;;6.67;100.00
54978;BME280;40873;47.522;19.106;2024-01-07T00:15:29;98948.69;;;6.70;100.00
54978;BME280;40873;47.522;19.106;2024-01-07T00:17:56;98949.31;;;6.73;100.00
54978;BME280;40873;47.522;19.106;2024-01-07T00:20:23;98944.91;;;6.74;100.00
54978;BME280;40873;47.522;19.106;2024-01-07T00:22:50;98946.63;;;6.75;100.00
54978;BME280;40873;47.522;19.106;2024-01-07T00:25:17;98949.03;;;6.78;100.00
54978;BME280;40873;47.522;19.106;2024-01-07T00:27:45;98952.47;;;6.78;100.00
54978;BME280;40873;47.522;19.106;2024-01-07T00:30:12;98952.69;;;6.75;100.00
54978;BME280;40873;47.522;19.106;2024-01-07T00:32:39;98944.91;;;6.74;100.00
54978;BME280;40873;47.522;19.106;2024-01-07T00:35:07;98949.97;;;6.77;100.00
54978;BME280;40873;47.522;19.106;2024-01-07T00:37:34;98953.22;;;6.80;100.00
54978;BME280;40873;47.522;19.106;2024-01-07T00:40:02;98944.06;;;6.73;100.00
54978;BME280;40873;47.522;19.106;2024-01-07T00:42:29;98935.50;;;6.71;100.00
54978;BME280;40873;47.522;19.106;2024-01-07T00:44:57;98941.69;;;6.70;100.00
54978;BME280;40873;47.522;19.106;2024-01-07T00:47:23;98938.00;;;6.73;100.00
54978;BME280;40873;47.522;19.106;2024-01-07T00:49:51;98936.31;;;6.72;100.00
54978;BME280;40873;47.522;19.106;2024-01-07T00:52:18;98946.19;;;6.68;100.00
54978;BME280;40873;47.522;19.106;2024-01-07T00:54:45;98949.44;;;6.72;100.00
54978;BME280;40873;47.522;19.106;2024-01-07T00:57:12;98949.94;;;6.64;100.00
54978;BME280;40873;47.522;19.106;2024-01-07T00:59:39;98954.88;;;6.69;100.00
54978;BME280;40873;47.522;19.106;2024-01-07T01:02:06;98949.72;;;6.67;100.00
54978;BME280;40873;47.522;19.106;2024-01-07T01:04:34;98953.50;;;6.63;100.00
54978;BME280;40873;47.522;19.106;2024-01-07T01:07:00;98944.06;;;6.60;100.00
54978;BME280;40873;47.522;19.106;2024-01-07T01:09:28;98953.69;;;6.60;100.00
54978;BME280;40873;47.522;19.106;2024-01-07T01:11:56;98948.16;;;6.65;100.00
54978;BME280;40873;47.522;19.106;2024-01-07T01:14:23;98947.53;;;6.61;100.00
54978;BME280;40873;47.522;19.106;2024-01-07T01:16:50;98944.91;;;6.61;100.00
54978;BME280;40873;47.522;19.106;2024-01-07T01:19:18;98942.09;;;6.64;100.00
54978;BME280;40873;47.522;19.106;2024-01-07T01:21:45;98943.84;;;6.51;100.00
54978;BME280;40873;47.522;19.106;2024-01-07T01:24:12;98940.81;;;6.57;100.00
54978;BME280;40873;47.522;19.106;2024-01-07T01:26:39;98938.09;;;6.58;100.00
54978;BME280;40873;47.522;19.106;2024-01-07T01:29:06;98937.91;;;6.62;100.00
54978;BME280;40873;47.522;19.106;2024-01-07T01:31:33;98936.00;;;6.64;100.00
54978;BME280;40873;47.522;19.106;2024-01-07T01:34:00;98934.00;;;6.67;100.00
54978;BME280;40873;47.522;19.106;2024-01-07T01:36:27;98933.72;;;6.72;100.00
54978;BME280;40873;47.522;19.106;2024-01-07T01:38:55;98925.22;;;6.68;100.00
54978;BME280;40873;47.522;19.106;2024-01-07T01:41:21;98933.94;;;6.69;100.00
54978;BME280;40873;47.522;19.106;2024-01-07T01:43:49;98926.06;;;6.69;100.00
54978;BME280;40873;47.522;19.106;2024-01-07T01:46:15;98926.06;;;6.69;100.00
54978;BME280;40873;47.522;19.106;2024-01-07T01:48:43;98931.19;;;6.70;100.00
54978;BME280;40873;47.522;19.106;2024-01-07T01:51:10;98931.50;;;6.66;100.00
54978;BME280;40873;47.522;19.106;2024-01-07T01:53:38;98927.31;;;6.63;100.00
54978;BME280;40873;47.522;19.106;2024-01-07T01:56:05;98916.09;;;6.61;100.00
54978;BME280;40873;47.522;19.106;2024-01-07T01:58:36;98923.09;;;6.60;100.00
54978;BME280;40873;47.522;19.106;2024-01-07T02:01:03;98918.59;;;6.63;100.00
54978;BME280;40873;47.522;19.106;2024-01-07T02:03:33;98927.31;;;6.63;100.00
54978;BME280;40873;47.522;19.106;2024-01-07T02:06:00;98925.53;;;6.64;100.00
54978;BME280;40873;47.522;19.106;2024-01-07T02:08:27;98925.22;;;6.68;100.00
54978;BME280;40873;47.522;19.106;2024-01-07T02:10:54;98915.16;;;6.62;100.00
54978;BME280;40873;47.522;19.106;2024-01-07T02:13:21;98911.25;;;6.55;100.00
54978;BME280;40873;47.522;19.106;2024-01-07T02:15:48;98917.78;;;6.62;100.00
54978;BME280;40873;47.522;19.106;2024-01-07T02:18:15;98920.38;;;6.62;100.00
54978;BME280;40873;47.522;19.106;2024-01-07T02:20:42;98912.41;;;6.64;100.00
54978;BME280;40873;47.522;19.106;2024-01-07T02:23:09;98908.00;;;6.64;100.00
54978;BME280;40873;47.522;19.106;2024-01-07T02:25:36;98908.00;;;6.64;100.00
54978;BME280;40873;47.522;19.106;2024-01-07T02:28:05;98901.22;;;6.62;100.00
54978;BME280;40873;47.522;19.106;2024-01-07T02:30:32;98912.13;;;6.68;100.00
54978;BME280;40873;47.522;19.106;2024-01-07T02:33:02;98912.56;;;6.75;100.00
54978;BME280;40873;47.522;19.106;2024-01-07T02:35:30;98911.28;;;6.68;100.00
54978;BME280;40873;47.522;19.106;2024-01-07T02:37:57;98909.06;;;6.62;100.00
54978;BME280;40873;47.522;19.106;2024-01-07T02:40:24;98901.50;;;6.57;100.00
54978;BME280;40873;47.522;19.106;2024-01-07T02:42:52;98898.19;;;6.68;100.00
54978;BME280;40873;47.522;19.106;2024-01-07T02:45:19;98894.25;;;6.60;100.00
54978;BME280;40873;47.522;19.106;2024-01-07T02:47:46;98884.53;;;6.63;100.00
54978;BME280;40873;47.522;19.106;2024-01-07T02:50:13;98886.63;;;6.70;100.00
54978;BME280;40873;47.522;19.106;2024-01-07T02:52:40;98886.84;;;6.67;100.00
54978;BME280;40873;47.522;19.106;2024-01-07T02:55:08;98887.78;;;6.66;100.00
54978;BME280;40873;47.522;19.106;2024-01-07T02:57:38;98890.41;;;6.66;100.00
54978;BME280;40873;47.522;19.106;2024-01-07T03:00:05;98886.63;;;6.70;100.00
54978;BME280;40873;47.522;19.106;2024-01-07T03:02:33;98888.53;;;6.68;100.00
54978;BME280;40873;47.522;19.106;2024-01-07T03:05:00;98895.84;;;6.63;100.00
54978;BME280;40873;47.522;19.106;2024-01-07T03:07:27;98884.28;;;6.53;100.00
54978;BME280;40873;47.522;19.106;2024-01-07T03:09:54;98881.28;;;6.59;100.00
54978;BME280;40873;47.522;19.106;2024-01-07T03:12:21;98879.72;;;6.56;100.00
54978;BME280;40873;47.522;19.106;2024-01-07T03:14:48;98880.03;;;6.65;100.00
54978;BME280;40873;47.522;19.106;2024-01-07T03:17:15;98874.25;;;6.59;100.00
54978;BME280;40873;47.522;19.106;2024-01-07T03:19:43;98875.19;;;6.58;100.00
54978;BME280;40873;47.522;19.106;2024-01-07T03:22:11;98873.22;;;6.62;100.00
54978;BME280;40873;47.522;19.106;2024-01-07T03:24:38;98869.22;;;6.56;100.00
54978;BME280;40873;47.522;19.106;2024-01-07T03:27:05;98878.22;;;6.52;100.00
54978;BME280;40873;47.522;19.106;2024-01-07T03:29:32;98872.69;;;6.57;100.00
54978;BME280;40873;47.522;19.106;2024-01-07T03:31:59;98876.00;;;6.46;100.00
54978;BME280;40873;47.522;19.106;2024-01-07T03:34:26;98870.91;;;6.57;100.00
54978;BME280;40873;47.522;19.106;2024-01-07T03:36:54;98871.13;;;6.54;100.00
54978;BME280;40873;47.522;19.106;2024-01-07T03:39:20;98873.09;;;6.51;100.00
54978;BME280;40873;47.522;19.106;2024-01-07T03:41:47;98874.56;;;6.42;100.00
54978;BME280;40873;47.522;19.106;2024-01-07T03:44:14;98870.88;;;6.45;100.00
54978;BME280;40873;47.522;19.106;2024-01-07T03:46:41;98875.59;;;6.52;100.00
54978;BME280;40873;47.522;19.106;2024-01-07T03:49:08;98866.91;;;6.52;100.00
54978;BME280;40873;47.522;19.106;2024-01-07T03:51:35;98869.75;;;6.49;100.00
54978;BME280;40873;47.522;19.106;2024-01-07T03:54:02;98869.50;;;6.39;100.00
54978;BME280;40873;47.522;19.106;2024-01-07T03:56:29;98872.25;;;6.50;100.00
54978;BME280;40873;47.522;19.106;2024-01-07T03:58:56;98874.34;;;6.45;100.00
54978;BME280;40873;47.522;19.106;2024-01-07T04:01:23;98870.88;;;6.45;100.00
54978;BME280;40873;47.522;19.106;2024-01-07T04:03:50;98862.72;;;6.49;100.00
54978;BME280;40873;47.522;19.106;2024-01-07T04:06:17;98871.00;;;6.43;100.00
54978;BME280;40873;47.522;19.106;2024-01-07T04:08:44;98878.53;;;6.35;100.00
54978;BME280;40873;47.522;19.106;2024-01-07T04:11:11;98875.69;;;6.38;100.00
54978;BME280;40873;47.522;19.106;2024-01-07T04:13:38;98878.75;;;6.45;100.00
54978;BME280;40873;47.522;19.106;2024-01-07T04:16:05;98879.91;;;6.41;100.00
54978;BME280;40873;47.522;19.106;2024-01-07T04:18:32;98889.44;;;6.42;100.00
54978;BME280;40873;47.522;19.106;2024-01-07T04:21:00;98881.97;;;6.36;100.00
54978;BME280;40873;47.522;19.106;2024-01-07T04:23:28;98878.97;;;6.42;100.00
54978;BME280;40873;47.522;19.106;2024-01-07T04:25:54;98891.66;;;6.48;100.00
54978;BME280;40873;47.522;19.106;2024-01-07T04:28:22;98884.53;;;6.50;100.00
54978;BME280;40873;47.522;19.106;2024-01-07T04:30:48;98885.56;;;6.47;100.00
54978;BME280;40873;47.522;19.106;2024-01-07T04:33:16;98889.53;;;6.53;100.00
54978;BME280;40873;47.522;19.106;2024-01-07T04:35:43;98888.81;;;6.51;100.00
54978;BME280;40873;47.522;19.106;2024-01-07T04:38:10;98881.59;;;6.54;100.00
54978;BME280;40873;47.522;19.106;2024-01-07T04:40:37;98887.69;;;6.55;100.00
54978;BME280;40873;47.522;19.106;2024-01-07T04:43:04;98888.72;;;6.65;100.00
54978;BME280;40873;47.522;19.106;2024-01-07T04:45:31;98888.09;;;6.62;100.00
54978;BME280;40873;47.522;19.106;2024-01-07T04:47:58;98889.78;;;6.63;100.00
54978;BME280;40873;47.522;19.106;2024-01-07T04:50:28;98889.78;;;6.63;100.00
54978;BME280;40873;47.522;19.106;2024-01-07T04:52:55;98888.50;;;6.55;100.00
54978;BME280;40873;47.522;19.106;2024-01-07T04:55:22;98889.34;;;6.56;100.00
54978;BME280;40873;47.522;19.106;2024-01-07T04:57:49;98890.38;;;6.53;100.00
54978;BME280;40873;47.522;19.106;2024-01-07T05:00:16;98889.47;;;6.54;100.00
54978;BME280;40873;47.522;19.106;2024-01-07T05:02:43;98882.94;;;6.60;100.00
54978;BME280;40873;47.522;19.106;2024-01-07T05:05:10;98894.38;;;6.59;100.00
54978;BME280;40873;47.522;19.106;2024-01-07T05:07:37;98879.72;;;6.56;100.00
54978;BME280;40873;47.522;19.106;2024-01-07T05:10:05;98876.25;;;6.56;100.00
54978;BME280;40873;47.522;19.106;2024-01-07T05:12:32;98886.84;;;6.67;100.00
54978;BME280;40873;47.522;19.106;2024-01-07T05:14:59;98880.13;;;6.63;100.00
54978;BME280;40873;47.522;19.106;2024-01-07T05:17:26;98888.72;;;6.65;100.00
54978;BME280;40873;47.522;19.106;2024-01-07T05:19:53;98880.31;;;6.60;100.00
54978;BME280;40873;47.522;19.106;2024-01-07T05:22:21;98881.91;;;6.50;100.00
54978;BME280;40873;47.522;19.106;2024-01-07T05:24:48;98874.16;;;6.48;100.00
54978;BME280;40873;47.522;19.106;2024-01-07T05:27:15;98879.50;;;6.59;100.00
54978;BME280;40873;47.522;19.106;2024-01-07T05:29:45;98880.31;;;6.60;100.00
54978;BME280;40873;47.522;19.106;2024-01-07T05:32:16;98886.63;;;6.57;100.00
54978;BME280;40873;47.522;19.106;2024-01-07T05:34:44;98879.91;;;6.53;100.00
54978;BME280;40873;47.522;19.106;2024-01-07T05:37:11;98878.88;;;6.56;100.00
54978;BME280;40873;47.522;19.106;2024-01-07T05:39:38;98884.97;;;6.69;100.00
54978;BME280;40873;47.522;19.106;2024-01-07T05:42:05;98882.75;;;6.63;100.00
54978;BME280;40873;47.522;19.106;2024-01-07T05:44:32;98883.88;;;6.59;100.00
54978;BME280;40873;47.522;19.106;2024-01-07T05:46:59;98883.28;;;6.68;100.00
54978;BME280;40873;47.522;19.106;2024-01-07T05:49:26;98889.16;;;6.72;100.00
54978;BME280;40873;47.522;19.106;2024-01-07T05:51:53;98889.38;;;6.69;100.00
54978;BME280;40873;47.522;19.106;2024-01-07T05:54:21;98884.31;;;6.66;100.00
54978;BME280;40873;47.522;19.106;2024-01-07T05:56:49;98886.09;;;6.65;100.00
54978;BME280;40873;47.522;19.106;2024-01-07T05:59:16;98880.69;;;6.68;100.00
54978;BME280;40873;47.522;19.106;2024-01-07T06:01:43;98882.66;;;6.65;100.00
54978;BME280;40873;47.522;19.106;2024-01-07T06:04:10;98884.13;;;6.56;100.00
54978;BME280;40873;47.522;19.106;2024-01-07T06:06:37;98879.59;;;6.58;100.00
54978;BME280;40873;47.522;19.106;2024-01-07T06:09:04;98882.94;;;6.60;100.00
54978;BME280;40873;47.522;19.106;2024-01-07T06:11:31;98896.16;;;6.58;100.00
54978;BME280;40873;47.522;19.106;2024-01-07T06:13:58;98883.78;;;6.60;100.00
54978;BME280;40873;47.522;19.106;2024-01-07T06:16:25;98885.50;;;6.62;100.00
54978;BME280;40873;47.522;19.106;2024-01-07T06:18:52;98890.41;;;6.66;100.00
54978;BME280;40873;47.522;19.106;2024-01-07T06:21:19;98885.25;;;6.65;100.00
54978;BME280;40873;47.522;19.106;2024-01-07T06:23:46;98886.09;;;6.65;100.00
54978;BME280;40873;47.522;19.106;2024-01-07T06:26:14;98887.78;;;6.66;100.00
54978;BME280;40873;47.522;19.106;2024-01-07T06:28:44;98885.06;;;6.68;100.00
54978;BME280;40873;47.522;19.106;2024-01-07T06:31:11;98886.63;;;6.70;100.00
54978;BME280;40873;47.522;19.106;2024-01-07T06:33:38;98887.25;;;6.74;100.00
54978;BME280;40873;47.522;19.106;2024-01-07T06:36:05;98891.47;;;6.76;100.00
54978;BME280;40873;47.522;19.106;2024-01-07T06:38:32;98890.63;;;6.76;100.00
54978;BME280;40873;47.522;19.106;2024-01-07T06:41:00;98891.47;;;6.76;100.00
54978;BME280;40873;47.522;19.106;2024-01-07T06:43:30;98890.41;;;6.66;100.00
54978;BME280;40873;47.522;19.106;2024-01-07T06:45:58;98896.59;;;6.65;100.00
54978;BME280;40873;47.522;19.106;2024-01-07T06:48:26;98895.13;;;6.74;100.00
54978;BME280;40873;47.522;19.106;2024-01-07T06:50:53;98892.59;;;6.72;100.00
54978;BME280;40873;47.522;19.106;2024-01-07T06:53:20;98899.63;;;6.72;100.00
54978;BME280;40873;47.522;19.106;2024-01-07T06:55:47;98895.56;;;6.68;100.00
54978;BME280;40873;47.522;19.106;2024-01-07T06:58:14;98904.78;;;6.86;100.00
54978;BME280;40873;47.522;19.106;2024-01-07T07:00:41;98905.41;;;6.77;100.00
54978;BME280;40873;47.522;19.106;2024-01-07T07:03:10;98907.50;;;6.72;100.00
54978;BME280;40873;47.522;19.106;2024-01-07T07:05:38;98910.75;;;6.75;100.00
54978;BME280;40873;47.522;19.106;2024-01-07T07:08:05;98911.91;;;6.71;100.00
54978;BME280;40873;47.522;19.106;2024-01-07T07:10:32;98915.25;;;6.73;100.00
54978;BME280;40873;47.522;19.106;2024-01-07T07:12:59;98915.16;;;6.75;100.00
54978;BME280;40873;47.522;19.106;2024-01-07T07:15:27;98919.03;;;6.69;100.00
54978;BME280;40873;47.522;19.106;2024-01-07T07:17:58;98909.69;;;6.65;100.00
54978;BME280;40873;47.522;19.106;2024-01-07T07:20:25;98910.97;;;6.72;100.00
54978;BME280;40873;47.522;19.106;2024-01-07T07:22:52;98912.63;;;6.73;100.00
54978;BME280;40873;47.522;19.106;2024-01-07T07:25:19;98923.34;;;6.70;100.00
54978;BME280;40873;47.522;19.106;2024-01-07T07:27:46;98920.50;;;6.73;100.00
54978;BME280;40873;47.522;19.106;2024-01-07T07:30:13;98916.72;;;6.77;100.00
54978;BME280;40873;47.522;19.106;2024-01-07T07:32:40;98918.41;;;6.78;100.00
54978;BME280;40873;47.522;19.106;2024-01-07T07:35:08;98920.50;;;6.73;100.00
54978;BME280;40873;47.522;19.106;2024-01-07T07:37:35;98919.91;;;6.82;100.00
54978;BME280;40873;47.522;19.106;2024-01-07T07:40:03;98916.44;;;6.82;100.00
54978;BME280;40873;47.522;19.106;2024-01-07T07:42:30;98919.13;;;6.80;100.00
54978;BME280;40873;47.522;19.106;2024-01-07T07:45:00;98923.22;;;6.72;100.00
54978;BME280;40873;47.522;19.106;2024-01-07T07:47:28;98924.16;;;6.71;100.00
54978;BME280;40873;47.522;19.106;2024-01-07T07:49:56;98928.78;;;6.80;100.00
54978;BME280;40873;47.522;19.106;2024-01-07T07:52:24;98931.50;;;6.78;100.00
54978;BME280;40873;47.522;19.106;2024-01-07T07:54:52;98929.53;;;6.82;100.00
54978;BME280;40873;47.522;19.106;2024-01-07T07:57:21;98927.66;;;6.84;100.00
54978;BME280;40873;47.522;19.106;2024-01-07T07:59:48;98937.41;;;6.82;100.00
54978;BME280;40873;47.522;19.106;2024-01-07T08:02:16;98933.63;;;6.86;100.00
54978;BME280;40873;47.522;19.106;2024-01-07T08:04:43;98934.56;;;6.85;100.00
54978;BME280;40873;47.522;19.106;2024-01-07T08:07:10;98932.78;;;6.85;100.00
54978;BME280;40873;47.522;19.106;2024-01-07T08:09:37;98938.03;;;6.98;100.00
54978;BME280;40873;47.522;19.106;2024-01-07T08:12:05;98936.25;;;6.99;100.00
54978;BME280;40873;47.522;19.106;2024-01-07T08:14:33;98932.16;;;6.95;100.00
54978;BME280;40873;47.522;19.106;2024-01-07T08:17:00;98942.53;;;6.83;100.00
54978;BME280;40873;47.522;19.106;2024-01-07T08:19:27;98940.53;;;6.87;100.00
54978;BME280;40873;47.522;19.106;2024-01-07T08:21:54;98941.06;;;6.92;100.00
54978;BME280;40873;47.522;19.106;2024-01-07T08:24:23;98944.34;;;6.96;100.00
54978;BME280;40873;47.522;19.106;2024-01-07T08:26:50;98953.44;;;6.90;100.00
54978;BME280;40873;47.522;19.106;2024-01-07T08:29:18;98946.53;;;6.89;100.00
54978;BME280;40873;47.522;19.106;2024-01-07T08:31:45;98947.03;;;6.94;100.00
54978;BME280;40873;47.522;19.106;2024-01-07T08:34:13;98952.63;;;6.90;100.00
54978;BME280;40873;47.522;19.106;2024-01-07T08:36:42;98951.56;;;7.05;100.00
54978;BME280;40873;47.522;19.106;2024-01-07T08:39:10;98958.38;;;7.07;100.00
54978;BME280;40873;47.522;19.106;2024-01-07T08:41:38;98960.56;;;7.01;100.00
54978;BME280;40873;47.522;19.106;2024-01-07T08:44:05;98961.94;;;7.06;100.00
54978;BME280;40873;47.522;19.106;2024-01-07T08:46:32;98955.66;;;7.09;100.00
54978;BME280;40873;47.522;19.106;2024-01-07T08:48:59;98959.13;;;7.09;100.00
54978;BME280;40873;47.522;19.106;2024-01-07T08:51:26;98962.38;;;7.13;100.00
54978;BME280;40873;47.522;19.106;2024-01-07T08:53:53;98964.03;;;7.14;100.00
54978;BME280;40873;47.522;19.106;2024-01-07T08:56:21;98965.72;;;7.15;100.00
54978;BME280;40873;47.522;19.106;2024-01-07T08:58:48;98968.25;;;7.17;100.00
54978;BME280;40873;47.522;19.106;2024-01-07T09:01:15;98971.72;;;7.17;100.00
54978;BME280;40873;47.522;19.106;2024-01-07T09:03:42;98976.22;;;7.15;100.00
54978;BME280;40873;47.522;19.106;2024-01-07T09:06:09;98969.63;;;7.09;100.00
54978;BME280;40873;47.522;19.106;2024-01-07T09:08:36;98965.72;;;7.15;100.00
54978;BME280;40873;47.522;19.106;2024-01-07T09:11:04;98977.38;;;7.11;100.00
54978;BME280;40873;47.522;19.106;2024-01-07T09:13:32;98974.53;;;7.14;100.00
54978;BME280;40873;47.522;19.106;2024-01-07T09:15:59;98973.91;;;7.10;100.00
54978;BME280;40873;47.522;19.106;2024-01-07T09:18:26;98977.66;;;6.94;100.00
54978;BME280;40873;47.522;19.106;2024-01-07T09:20:53;98978.75;;;7.04;100.00
54978;BME280;40873;47.522;19.106;2024-01-07T09:23:21;98974.88;;;7.09;100.00
54978;BME280;40873;47.522;19.106;2024-01-07T09:25:48;98982.94;;;7.06;100.00
54978;BME280;40873;47.522;19.106;2024-01-07T09:28:15;98977.69;;;7.06;100.00
54978;BME280;40873;47.522;19.106;2024-01-07T09:30:43;98977.78;;;6.92;100.00
54978;BME280;40873;47.522;19.106;2024-01-07T09:33:10;98982.81;;;6.82;100.00
54978;BME280;40873;47.522;19.106;2024-01-07T09:35:37;98982.72;;;6.97;100.00
54978;BME280;40873;47.522;19.106;2024-01-07T09:38:04;98982.41;;;6.89;100.00
54978;BME280;40873;47.522;19.106;2024-01-07T09:40:31;98977.38;;;6.98;100.00
54978;BME280;40873;47.522;19.106;2024-01-07T09:42:59;98980.19;;;7.08;100.00
54978;BME280;40873;47.522;19.106;2024-01-07T09:45:28;98973.50;;;7.17;100.00
54978;BME280;40873;47.522;19.106;2024-01-07T09:47:56;98975.16;;;7.05;100.00
54978;BME280;40873;47.522;19.106;2024-01-07T09:50:24;98969.38;;;7.00;100.00
54978;BME280;40873;47.522;19.106;2024-01-07T09:52:54;98965.63;;;7.04;100.00
54978;BME280;40873;47.522;19.106;2024-01-07T09:55:40;98966.47;;;7.04;100.00
54978;BME280;40873;47.522;19.106;2024-01-07T09:58:11;98964.97;;;7.00;100.00
54978;BME280;40873;47.522;19.106;2024-01-07T10:00:39;98964.38;;;7.09;100.00
54978;BME280;40873;47.522;19.106;2024-01-07T10:03:06;98961.63;;;6.98;100.00
54978;BME280;40873;47.522;19.106;2024-01-07T10:05:34;98970.88;;;7.04;100.00
54978;BME280;40873;47.522;19.106;2024-01-07T10:08:01;98972.22;;;6.97;100.00
54978;BME280;40873;47.522;19.106;2024-01-07T10:10:29;98961.44;;;6.89;100.00
54978;BME280;40873;47.522;19.106;2024-01-07T10:12:56;98962.56;;;6.84;100.00
54978;BME280;40873;47.522;19.106;2024-01-07T10:15:24;98958.59;;;7.04;100.00
54978;BME280;40873;47.522;19.106;2024-01-07T10:17:55;98962.06;;;7.05;100.00
54978;BME280;40873;47.522;19.106;2024-01-07T10:20:22;98961.09;;;6.93;100.00
54978;BME280;40873;47.522;19.106;2024-01-07T10:22:52;98964.56;;;6.94;100.00
54978;BME280;40873;47.522;19.106;2024-01-07T10:25:19;98961.94;;;6.94;100.00
54978;BME280;40873;47.522;19.106;2024-01-07T10:27:46;98955.00;;;6.93;100.00
54978;BME280;40873;47.522;19.106;2024-01-07T10:30:15;98954.91;;;6.94;100.00
54978;BME280;40873;47.522;19.106;2024-01-07T10:32:43;98952.50;;;6.91;100.00
54978;BME280;40873;47.522;19.106;2024-01-07T10:35:13;98957.03;;;6.89;100.00
54978;BME280;40873;47.522;19.106;2024-01-07T10:37:43;98951.53;;;6.79;100.00
54978;BME280;40873;47.522;19.106;2024-01-07T10:40:12;98950.50;;;6.82;100.00
54978;BME280;40873;47.522;19.106;2024-01-07T10:42:40;98952.28;;;6.94;100.00
54978;BME280;40873;47.522;19.106;2024-01-07T10:45:09;98952.28;;;6.94;100.00
54978;BME280;40873;47.522;19.106;2024-01-07T10:47:40;98946.44;;;6.91;100.00
54978;BME280;40873;47.522;19.106;2024-01-07T10:50:11;98945.16;;;6.83;100.00
54978;BME280;40873;47.522;19.106;2024-01-07T10:52:40;98954.28;;;6.91;100.00
54978;BME280;40873;47.522;19.106;2024-01-07T10:55:09;98950.50;;;6.95;100.00
54978;BME280;40873;47.522;19.106;2024-01-07T10:57:44;98950.84;;;6.90;100.00
54978;BME280;40873;47.522;19.106;2024-01-07T11:00:13;98952.28;;;6.94;100.00
54978;BME280;40873;47.522;19.106;2024-01-07T11:03:10;98948.63;;;6.97;100.00
54978;BME280;40873;47.522;19.106;2024-01-07T11:05:47;98946.84;;;6.97;100.00
54978;BME280;40873;47.522;19.106;2024-01-07T11:08:21;98939.09;;;6.96;100.00
54978;BME280;40873;47.522;19.106;2024-01-07T11:10:57;98933.84;;;6.96;100.00
54978;BME280;40873;47.522;19.106;2024-01-07T11:13:35;98932.66;;;6.87;100.00
54978;BME280;40873;47.522;19.106;2024-01-07T11:16:08;98938.84;;;6.86;100.00
54978;BME280;40873;47.522;19.106;2024-01-07T11:18:49;98933.63;;;6.86;100.00
54978;BME280;40873;47.522;19.106;2024-01-07T11:21:22;98935.50;;;6.84;100.00
54978;BME280;40873;47.522;19.106;2024-01-07T11:23:51;98928.47;;;6.84;100.00
54978;BME280;40873;47.522;19.106;2024-01-07T11:26:20;98930.56;;;6.79;100.00
54978;BME280;40873;47.522;19.106;2024-01-07T11:28:51;98933.44;;;6.89;100.00
54978;BME280;40873;47.522;19.106;2024-01-07T11:31:20;98936.13;;;6.75;100.00
54978;BME280;40873;47.522;19.106;2024-01-07T11:33:50;98924.56;;;6.65;100.00
54978;BME280;40873;47.522;19.106;2024-01-07T11:36:18;98932.25;;;6.68;100.00
54978;BME280;40873;47.522;19.106;2024-01-07T11:38:47;98933.72;;;6.84;100.00
54978;BME280;40873;47.522;19.106;2024-01-07T11:41:21;98935.41;;;6.85;100.00
54978;BME280;40873;47.522;19.106;2024-01-07T11:43:57;98933.94;;;6.94;100.00
54978;BME280;40873;47.522;19.106;2024-01-07T11:46:32;98935.56;;;6.57;100.00
54978;BME280;40873;47.522;19.106;2024-01-07T11:48:59;98934.81;;;6.42;100.00
54978;BME280;40873;47.522;19.106;2024-01-07T11:51:32;98935.72;;;6.28;100.00
54978;BME280;40873;47.522;19.106;2024-01-07T11:54:00;98929.03;;;6.10;100.00
54978;BME280;40873;47.522;19.106;2024-01-07T11:56:28;98934.03;;;5.86;100.00
54978;BME280;40873;47.522;19.106;2024-01-07T11:58:55;98942.44;;;5.77;100.00
54978;BME280;40873;47.522;19.106;2024-01-07T12:01:26;98938.94;;;5.78;100.00
54978;BME280;40873;47.522;19.106;2024-01-07T12:03:54;98939.78;;;5.78;100.00
54978;BME280;40873;47.522;19.106;2024-01-07T12:06:21;98937.63;;;5.71;100.00
54978;BME280;40873;47.522;19.106;2024-01-07T12:08:48;98938.22;;;5.47;100.00
54978;BME280;40873;47.522;19.106;2024-01-07T12:11:16;98943.72;;;5.57;100.00
54978;BME280;40873;47.522;19.106;2024-01-07T12:13:43;98945.03;;;5.50;100.00
54978;BME280;40873;47.522;19.106;2024-01-07T12:16:11;98947.00;;;5.32;100.00
54978;BME280;40873;47.522;19.106;2024-01-07T12:18:41;98945.69;;;5.25;100.00
54978;BME280;40873;47.522;19.106;2024-01-07T12:21:09;98952.50;;;5.28;100.00
54978;BME280;40873;47.522;19.106;2024-01-07T12:23:37;98945.44;;;5.15;100.00
54978;BME280;40873;47.522;19.106;2024-01-07T12:26:10;98953.44;;;5.12;100.00
54978;BME280;40873;47.522;19.106;2024-01-07T12:28:38;98951.59;;;5.29;100.00
54978;BME280;40873;47.522;19.106;2024-01-07T12:31:06;98952.81;;;5.23;100.00
54978;BME280;40873;47.522;19.106;2024-01-07T12:33:34;98958.41;;;5.17;100.00
54978;BME280;40873;47.522;19.106;2024-01-07T12:36:01;98956.34;;;5.08;100.00
54978;BME280;40873;47.522;19.106;2024-01-07T12:38:29;98955.19;;;4.98;100.00
54978;BME280;40873;47.522;19.106;2024-01-07T12:40:56;98955.31;;;5.10;100.00
54978;BME280;40873;47.522;19.106;2024-01-07T12:43:23;98956.03;;;4.98;100.00
54978;BME280;40873;47.522;19.106;2024-01-07T12:45:50;98953.88;;;4.90;100.00
54978;BME280;40873;47.522;19.106;2024-01-07T12:48:17;98962.81;;;4.86;100.00
54978;BME280;40873;47.522;19.106;2024-01-07T12:50:45;98967.06;;;5.03;100.00
54978;BME280;40873;47.522;19.106;2024-01-07T12:53:12;98963.59;;;4.88;100.00